Time,TemperatureF,DewpointF,PressureIn,WindDirection,WindDirectionDegrees,WindSpeedMPH,WindSpeedGustMPH,Humidity,HourlyPrecipIn,Conditions,Clouds,dailyrainin,SoftwareType,DateUTC
2013-11-24 00:01:00,32.8,19.7,29.79,NE,38,7.0,21.0,58,0.00,,---,0.00,VWS V14.01,2013-11-24 05:01:00,
2013-11-24 00:31:00,32.1,20.2,29.79,NNE,19,3.0,20.0,61,0.00,,---,0.00,VWS V14.01,2013-11-24 05:31:00,
2013-11-24 01:01:00,31.4,19.5,29.80,SW,228,2.0,17.0,61,0.00,,---,0.00,VWS V14.01,2013-11-24 06:01:00,
2013-11-24 01:31:00,30.5,18.3,29.79,West,268,2.0,20.0,60,0.00,,---,0.00,VWS V14.01,2013-11-24 06:31:00,
2013-11-24 02:01:00,30.1,17.9,29.80,North,350,4.0,23.0,60,0.00,,---,0.00,VWS V14.01,2013-11-24 07:01:00,
2013-11-24 02:31:00,29.4,18.4,29.80,SW,235,4.0,22.0,63,0.00,,---,0.00,VWS V14.01,2013-11-24 07:31:00,
2013-11-24 03:01:00,29.1,16.2,29.80,NNE,13,10.0,21.0,58,0.00,,---,0.00,VWS V14.01,2013-11-24 08:01:00,
2013-11-24 03:31:00,28.3,15.8,29.80,West,268,10.0,28.0,59,0.00,,---,0.00,VWS V14.01,2013-11-24 08:31:00,
2013-11-24 04:01:00,27.6,15.2,29.80,SE,126,7.0,19.0,59,0.00,,---,0.00,VWS V14.01,2013-11-24 09:01:00,
2013-11-24 04:31:00,27.0,13.8,29.81,NW,312,4.0,19.0,57,0.00,,---,0.00,VWS V14.01,2013-11-24 09:31:00,
2013-11-24 05:01:00,26.1,12.6,29.81,NW,311,8.0,30.0,56,0.00,,---,0.00,VWS V14.01,2013-11-24 10:01:00,
2013-11-24 05:31:00,25.8,13.5,29.82,West,274,7.0,21.0,59,0.00,,---,0.00,VWS V14.01,2013-11-24 10:31:00,
2013-11-24 06:01:00,25.4,13.5,29.82,SSW,207,6.0,19.0,60,0.00,,---,0.00,VWS V14.01,2013-11-24 11:01:00,
2013-11-24 06:31:00,24.8,14.0,29.84,WSW,245,11.0,16.0,63,0.00,,---,0.00,VWS V14.01,2013-11-24 11:31:00,
2013-11-24 07:01:00,24.5,14.1,29.85,North,351,7.0,17.0,64,0.00,,---,0.00,VWS V14.01,2013-11-24 12:01:00,
2013-11-24 07:31:00,24.6,14.5,29.85,SW,221,5.0,21.0,65,0.00,,---,0.00,VWS V14.01,2013-11-24 12:31:00,
2013-11-24 08:01:00,24.4,13.6,29.86,NNE,16,10.0,20.0,63,0.00,,---,0.00,VWS V14.01,2013-11-24 13:01:00,
2013-11-24 08:31:00,24.7,13.9,29.87,NNE,25,4.0,22.0,63,0.00,,---,0.00,VWS V14.01,2013-11-24 13:31:00,
2013-11-24 09:01:00,25.0,13.5,29.88,NNE,21,1.0,21.0,61,0.00,,---,0.00,VWS V14.01,2013-11-24 14:01:00,
2013-11-24 09:31:00,24.9,12.2,29.89,NNW,331,5.0,22.0,58,0.00,,---,0.00,VWS V14.01,2013-11-24 14:31:00,
2013-11-24 10:01:00,24.9,11.0,29.89,North,5,9.0,18.0,55,0.00,,---,0.00,VWS V14.01,2013-11-24 15:01:00,
2013-11-24 10:31:00,24.7,10.9,29.89,NW,323,3.0,17.0,55,0.00,,---,0.00,VWS V14.01,2013-11-24 15:31:00,
2013-11-24 11:01:00,25.2,9.2,29.89,NE,46,4.0,19.0,50,0.00,,---,0.00,VWS V14.01,2013-11-24 16:01:00,
2013-11-24 11:31:00,25.2,11.3,29.89,NNW,334,7.0,20.0,55,0.00,,---,0.00,VWS V14.01,2013-11-24 16:31:00,
2013-11-24 12:01:00,25.4,8.5,29.89,NNW,348,6.0,19.0,48,0.00,,---,0.00,VWS V14.01,2013-11-24 17:01:00,
2013-11-24 12:31:00,25.6,8.2,29.89,SW,236,5.0,18.0,47,0.00,,---,0.00,VWS V14.01,2013-11-24 17:31:00,
2013-11-24 13:01:00,26.0,9.0,29.89,NNE,13,4.0,20.0,48,0.00,,---,0.00,VWS V14.01,2013-11-24 18:01:00,
2013-11-24 13:31:00,26.7,8.2,29.90,NW,325,6.0,24.0,45,0.00,,---,0.00,VWS V14.01,2013-11-24 18:31:00,
2013-11-24 14:01:00,27.0,8.5,29.91,North,9,6.0,20.0,45,0.00,,---,0.00,VWS V14.01,2013-11-24 19:01:00,
2013-11-24 14:31:00,27.1,8.6,29.92,NNW,344,3.0,24.0,45,0.00,,---,0.00,VWS V14.01,2013-11-24 19:31:00,
2013-11-24 15:01:00,27.0,5.9,29.94,NE,49,3.0,22.0,40,0.00,,---,0.00,VWS V14.01,2013-11-24 20:01:00,
2013-11-24 15:31:00,27.3,3.9,29.95,NW,323,5.0,24.0,36,0.00,,---,0.00,VWS V14.01,2013-11-24 20:31:00,
2013-11-24 16:01:00,27.4,4.0,29.97,NW,318,9.0,24.0,36,0.00,,---,0.00,VWS V14.01,2013-11-24 21:01:00,
2013-11-24 16:31:00,27.2,4.4,29.99,WNW,294,15.0,26.0,37,0.00,,---,0.00,VWS V14.01,2013-11-24 21:31:00,
2013-11-24 17:01:00,27.1,4.9,30.01,NNE,24,3.0,25.0,38,0.00,,---,0.00,VWS V14.01,2013-11-24 22:01:00,
2013-11-24 17:31:00,26.6,6.1,30.04,NNW,345,7.0,23.0,41,0.00,,---,0.00,VWS V14.01,2013-11-24 22:31:00,
2013-11-24 18:01:00,26.2,6.2,30.05,NW,310,4.0,21.0,42,0.00,,---,0.00,VWS V14.01,2013-11-24 23:01:00,
2013-11-24 18:31:00,25.8,6.9,30.06,NNW,339,10.0,20.0,44,0.00,,---,0.00,VWS V14.01,2013-11-24 23:31:00,
2013-11-24 19:01:00,25.4,6.0,30.08,NW,308,7.0,25.0,43,0.00,,---,0.00,VWS V14.01,2013-11-25 00:01:00,
2013-11-24 19:31:00,25.3,6.4,30.09,NNW,329,9.0,23.0,44,0.00,,---,0.00,VWS V14.01,2013-11-25 00:31:00,
2013-11-24 20:01:00,25.1,5.8,30.09,WNW,283,10.0,24.0,43,0.00,,---,0.00,VWS V14.01,2013-11-25 01:01:00,
2013-11-24 20:31:00,24.9,6.1,30.11,WNW,288,9.0,19.0,44,0.00,,---,0.00,VWS V14.01,2013-11-25 01:31:00,
2013-11-24 21:01:00,24.7,6.4,30.10,NNE,28,4.0,23.0,45,0.00,,---,0.00,VWS V14.01,2013-11-25 02:01:00,
2013-11-24 21:31:00,24.4,6.1,30.11,West,281,9.0,23.0,45,0.00,,---,0.00,VWS V14.01,2013-11-25 02:31:00,
2013-11-24 22:01:00,24.3,7.9,30.13,NNW,346,7.0,21.0,49,0.00,,---,0.00,VWS V14.01,2013-11-25 03:01:00,
2013-11-24 22:31:00,24.0,5.8,30.14,WNW,300,6.0,23.0,45,0.00,,---,0.00,VWS V14.01,2013-11-25 03:31:00,
2013-11-24 23:01:00,23.6,4.4,30.15,WSW,248,8.0,17.0,43,0.00,,---,0.00,VWS V14.01,2013-11-25 04:01:00,
2013-11-24 23:31:00,23.6,6.8,30.17,WSW,252,4.0,19.0,48,0.00,,---,0.00,VWS V14.01,2013-11-25 04:31:00,